createdAt,value
2023-04-24T00:00:19.390Z,3.47
2023-04-24T00:02:49.971Z,3.30
2023-04-24T00:05:18.474Z,3.05
2023-04-24T00:07:46.688Z,3.03
2023-04-24T00:10:14.361Z,2.35
2023-04-24T00:12:41.713Z,2.80
2023-04-24T00:15:10.125Z,2.60
2023-04-24T00:17:37.765Z,2.33
2023-04-24T00:20:07.942Z,2.65
2023-04-24T00:22:35.316Z,3.28
2023-04-24T00:25:02.637Z,3.20
2023-04-24T00:27:29.986Z,3.35
2023-04-24T00:29:57.312Z,4.32
2023-04-24T00:32:24.766Z,4.68
2023-04-24T00:34:52.144Z,4.82
2023-04-24T00:37:19.468Z,6.05
2023-04-24T00:39:46.969Z,6.65
2023-04-24T00:42:14.321Z,7.82
2023-04-24T00:44:41.792Z,8.38
2023-04-24T00:47:09.353Z,8.30
2023-04-24T00:49:37.253Z,8.32
2023-04-24T00:52:08.596Z,8.43
2023-04-24T00:54:36.727Z,8.20
2023-04-24T00:57:07.614Z,7.55
2023-04-24T00:59:35.049Z,7.18
2023-04-24T01:02:02.364Z,7.65
2023-04-24T01:04:30.284Z,8.35
2023-04-24T01:06:58.481Z,9.40
2023-04-24T01:09:26.618Z,9.10
2023-04-24T01:11:54.111Z,7.05
2023-04-24T01:14:22.041Z,6.47
2023-04-24T01:16:49.434Z,6.13
2023-04-24T01:19:17.044Z,5.40
2023-04-24T01:21:45.461Z,5.20
2023-04-24T01:24:12.924Z,6.20
2023-04-24T01:26:40.310Z,6.60
2023-04-24T01:29:07.773Z,7.57
2023-04-24T01:31:35.458Z,7.82
2023-04-24T01:34:05.834Z,8.52
2023-04-24T01:36:33.802Z,8.35
2023-04-24T01:39:01.570Z,9.10
2023-04-24T01:41:29.441Z,8.90
2023-04-24T01:43:57.733Z,9.98
2023-04-24T01:46:25.764Z,10.00
2023-04-24T01:48:53.705Z,11.50
2023-04-24T01:51:21.091Z,12.50
2023-04-24T01:53:48.410Z,12.15
2023-04-24T01:56:16.267Z,12.05
2023-04-24T01:58:44.016Z,12.55
2023-04-24T02:01:16.353Z,13.23
2023-04-24T02:03:44.104Z,13.13
2023-04-24T02:06:11.522Z,13.27
2023-04-24T02:08:38.884Z,14.88
2023-04-24T02:11:06.943Z,15.82
2023-04-24T02:13:34.258Z,15.35
2023-04-24T02:16:01.731Z,16.13
2023-04-24T02:18:29.339Z,17.40
2023-04-24T02:20:56.756Z,16.17
2023-04-24T02:23:24.237Z,16.45
2023-04-24T02:25:51.746Z,16.13
2023-04-24T02:28:19.508Z,15.07
2023-04-24T02:30:47.060Z,14.52
2023-04-24T02:33:14.390Z,14.35
2023-04-24T02:35:41.743Z,14.50
2023-04-24T02:38:09.139Z,14.43
2023-04-24T02:40:36.522Z,14.90
2023-04-24T02:43:04.287Z,15.23
2023-04-24T02:45:31.672Z,15.00
2023-04-24T02:47:59.066Z,13.77
2023-04-24T02:50:26.451Z,13.45
2023-04-24T02:52:53.857Z,11.88
2023-04-24T02:55:21.294Z,12.00
2023-04-24T02:57:48.848Z,12.95
2023-04-24T03:00:16.495Z,11.85
2023-04-24T03:02:44.069Z,12.00
2023-04-24T03:05:12.951Z,12.00
2023-04-24T03:07:40.370Z,11.77
2023-04-24T03:10:08.529Z,11.88
2023-04-24T03:12:35.977Z,9.77
2023-04-24T03:15:03.511Z,11.32
2023-04-24T03:17:31.132Z,9.82
2023-04-24T03:19:58.554Z,8.50
2023-04-24T03:22:25.923Z,8.50
2023-04-24T03:24:53.344Z,6.88
2023-04-24T03:27:20.940Z,5.50
2023-04-24T03:29:48.429Z,4.78
2023-04-24T03:32:15.835Z,5.22
2023-04-24T03:34:43.195Z,5.45
2023-04-24T03:37:10.508Z,5.20
2023-04-24T03:39:37.828Z,6.18
2023-04-24T03:42:05.339Z,5.45
2023-04-24T03:44:32.658Z,6.30
2023-04-24T03:47:00.157Z,6.47
2023-04-24T03:49:27.838Z,5.70
2023-04-24T03:51:55.352Z,6.18
2023-04-24T03:54:22.733Z,6.50
2023-04-24T03:56:50.045Z,6.18
2023-04-24T03:59:17.372Z,4.20
2023-04-24T04:01:44.824Z,3.50
2023-04-24T04:04:12.496Z,3.42
2023-04-24T04:06:39.966Z,3.50
2023-04-24T04:09:08.171Z,3.60
2023-04-24T04:11:36.412Z,3.53
2023-04-24T04:14:03.872Z,3.58
2023-04-24T04:16:31.263Z,4.07
2023-04-24T04:18:58.739Z,3.47
2023-04-24T04:21:27.740Z,4.90
2023-04-24T04:23:55.139Z,5.63
2023-04-24T04:26:26.472Z,7.32
2023-04-24T04:28:54.258Z,7.97
2023-04-24T04:31:22.210Z,8.02
2023-04-24T04:33:49.604Z,9.50
2023-04-24T04:36:18.313Z,9.65
2023-04-24T04:38:45.814Z,11.63
2023-04-24T04:41:13.172Z,9.02
2023-04-24T04:43:40.751Z,8.80
2023-04-24T04:46:09.416Z,8.63
2023-04-24T04:48:36.873Z,7.63
2023-04-24T04:51:04.271Z,6.57
2023-04-24T04:53:31.699Z,5.88
2023-04-24T04:56:00.548Z,6.43
2023-04-24T04:58:27.884Z,7.35
2023-04-24T05:00:55.223Z,8.27
2023-04-24T05:03:22.899Z,8.15
2023-04-24T05:05:50.457Z,7.25
2023-04-24T05:08:26.422Z,4.43
2023-04-24T05:10:56.541Z,4.00
2023-04-24T05:15:54.351Z,3.20
2023-04-24T05:18:22.118Z,3.20
2023-04-24T05:20:49.506Z,4.07
2023-04-24T05:23:16.849Z,3.85
2023-04-24T05:25:44.298Z,4.82
2023-04-24T05:28:11.660Z,5.82
2023-04-24T05:30:39.146Z,7.13
2023-04-24T05:33:06.868Z,8.98
2023-04-24T05:35:34.287Z,9.80
2023-04-24T05:38:01.656Z,10.88
2023-04-24T05:40:29.005Z,12.20
2023-04-24T05:42:56.508Z,12.52
2023-04-24T05:45:23.822Z,12.50
2023-04-24T05:47:53.445Z,12.65
2023-04-24T05:50:20.908Z,14.00
2023-04-24T05:52:48.257Z,12.73
2023-04-24T05:55:18.399Z,12.38
2023-04-24T05:57:45.772Z,14.50
2023-04-24T06:00:14.057Z,15.20
2023-04-24T06:05:09.671Z,15.40
2023-04-24T06:07:37.289Z,16.50
2023-04-24T06:10:04.987Z,15.75
2023-04-24T06:12:32.363Z,15.18
2023-04-24T06:14:59.739Z,16.48
2023-04-24T06:17:27.123Z,17.42
2023-04-24T06:19:54.787Z,16.23
2023-04-24T06:22:22.108Z,16.98
2023-04-24T06:24:49.713Z,16.50
2023-04-24T06:27:17.046Z,17.52
2023-04-24T06:29:44.673Z,17.48
2023-04-24T06:32:12.177Z,16.42
2023-04-24T06:34:39.706Z,16.25
2023-04-24T06:37:07.588Z,13.20
2023-04-24T06:39:34.915Z,15.27
2023-04-24T06:42:02.270Z,13.23
2023-04-24T06:44:29.612Z,10.57
2023-04-24T06:46:56.984Z,11.23
2023-04-24T06:49:24.397Z,10.70
2023-04-24T06:51:51.741Z,9.65
2023-04-24T06:54:19.161Z,9.45
2023-04-24T06:56:48.831Z,9.35
2023-04-24T06:59:16.514Z,9.60
2023-04-24T07:01:44.161Z,8.55
2023-04-24T07:04:13.197Z,10.30
2023-04-24T07:06:40.846Z,9.18
2023-04-24T07:09:10.066Z,9.32
2023-04-24T07:11:39.468Z,8.80
2023-04-24T07:14:06.854Z,9.88
2023-04-24T07:16:34.278Z,8.95
2023-04-24T07:19:01.683Z,9.13
2023-04-24T07:21:29.126Z,9.25
2023-04-24T07:23:56.608Z,8.13
2023-04-24T07:26:24.007Z,8.80
2023-04-24T07:28:51.534Z,7.47
2023-04-24T07:31:18.878Z,6.32
2023-04-24T07:33:48.663Z,6.93
2023-04-24T07:36:19.839Z,6.45
2023-04-24T07:38:47.814Z,6.40
2023-04-24T07:41:15.924Z,6.47
2023-04-24T07:43:43.540Z,6.82
2023-04-24T07:46:13.585Z,6.75
2023-04-24T07:48:41.002Z,6.28
2023-04-24T07:51:11.101Z,5.85
2023-04-24T07:53:38.520Z,6.28
2023-04-24T07:56:06.235Z,5.90
2023-04-24T07:58:33.684Z,4.43
2023-04-24T08:01:01.048Z,4.63
2023-04-24T08:03:28.672Z,4.97
2023-04-24T08:05:56.373Z,5.03
2023-04-24T08:08:24.226Z,5.40
2023-04-24T08:10:52.104Z,5.32
2023-04-24T08:13:19.525Z,4.65
2023-04-24T08:15:47.157Z,4.32
2023-04-24T08:18:16.684Z,4.10
2023-04-24T08:20:44.199Z,4.25
2023-04-24T08:23:11.563Z,4.40
2023-04-24T08:25:38.880Z,4.40
2023-04-24T08:28:07.912Z,4.28
2023-04-24T08:30:35.335Z,4.32
2023-04-24T08:33:02.843Z,4.38
2023-04-24T08:35:30.321Z,3.58
2023-04-24T08:37:57.669Z,4.30
2023-04-24T08:40:31.287Z,4.13
2023-04-24T08:42:58.705Z,4.45
2023-04-24T08:45:27.099Z,4.35
2023-04-24T08:47:55.883Z,3.78
2023-04-24T08:50:24.335Z,3.65
2023-04-24T08:52:57.114Z,3.35
2023-04-24T08:55:25.979Z,3.60
2023-04-24T08:57:55.141Z,3.40
2023-04-24T09:00:23.022Z,3.40
2023-04-24T09:02:54.410Z,3.25
2023-04-24T09:05:23.158Z,3.30
2023-04-24T09:07:57.653Z,3.10
2023-04-24T09:10:26.070Z,3.17
2023-04-24T09:12:53.997Z,3.03
2023-04-24T09:15:21.833Z,2.50
2023-04-24T09:17:49.598Z,2.15
2023-04-24T09:20:17.087Z,2.45
2023-04-24T09:22:44.806Z,2.45
2023-04-24T09:25:13.747Z,2.22
2023-04-24T09:27:46.072Z,1.88
2023-04-24T09:30:14.014Z,2.22
2023-04-24T09:32:42.724Z,1.80
2023-04-24T09:35:14.580Z,2.33
2023-04-24T09:37:50.899Z,2.10
2023-04-24T09:40:20.885Z,1.48
2023-04-24T09:42:58.978Z,1.20
2023-04-24T09:45:39.975Z,1.58
2023-04-24T09:48:12.718Z,1.65
2023-04-24T09:50:40.066Z,1.67
2023-04-24T09:53:10.020Z,1.70
2023-04-24T09:55:43.433Z,1.50
2023-04-24T09:58:17.088Z,1.38
2023-04-24T10:00:44.668Z,1.75
2023-04-24T10:03:12.394Z,1.52
2023-04-24T10:05:40.330Z,1.58
2023-04-24T10:08:09.549Z,1.40
2023-04-24T10:10:42.211Z,1.40
2023-04-24T10:13:11.631Z,1.45
2023-04-24T10:15:39.935Z,1.67
2023-04-24T10:18:07.898Z,1.13
2023-04-24T10:20:37.495Z,1.55
2023-04-24T10:23:06.688Z,1.40
2023-04-24T10:25:36.425Z,1.30
2023-04-24T10:28:04.988Z,2.03
2023-04-24T10:30:37.361Z,1.40
2023-04-24T10:33:06.811Z,1.98
2023-04-24T10:35:40.613Z,1.90
2023-04-24T10:38:13.592Z,1.50
2023-04-24T10:40:41.258Z,1.77
2023-04-24T10:43:11.433Z,1.60
2023-04-24T10:45:39.653Z,1.60
2023-04-24T10:48:12.347Z,1.80
2023-04-24T10:50:49.459Z,2.00
2023-04-24T10:53:20.985Z,2.03
2023-04-24T10:55:52.932Z,1.80
2023-04-24T10:58:24.434Z,2.00
2023-04-24T11:00:59.764Z,1.70
2023-04-24T11:03:30.363Z,2.08
2023-04-24T11:06:05.004Z,2.03
2023-04-24T11:08:40.339Z,2.10
2023-04-24T11:11:19.374Z,2.58
2023-04-24T11:13:55.743Z,2.47
2023-04-24T11:16:27.743Z,2.00
2023-04-24T11:19:05.127Z,2.30
2023-04-24T11:21:49.113Z,2.30
2023-04-24T11:24:48.076Z,2.30
2023-04-24T11:27:19.021Z,2.20
2023-04-24T11:29:57.599Z,1.58
2023-04-24T11:32:29.015Z,1.77
2023-04-24T11:34:57.737Z,1.58
2023-04-24T11:37:27.843Z,2.08
2023-04-24T11:39:57.460Z,1.95
2023-04-24T11:42:26.535Z,1.75
2023-04-24T11:44:56.677Z,1.90
2023-04-24T11:47:35.070Z,2.22
2023-04-24T11:50:03.493Z,2.20
2023-04-24T11:52:31.881Z,1.90
2023-04-24T11:55:00.636Z,2.08
2023-04-24T11:57:34.617Z,1.60
2023-04-24T12:00:04.606Z,1.80
2023-04-24T12:02:33.165Z,2.17
2023-04-24T12:05:00.788Z,2.00
2023-04-24T12:07:28.593Z,1.60
2023-04-24T12:10:00.834Z,2.20
2023-04-24T12:12:31.913Z,1.95
2023-04-24T12:15:00.622Z,2.13
2023-04-24T12:17:33.013Z,2.05
2023-04-24T12:20:08.515Z,2.58
2023-04-24T12:22:57.978Z,2.05
2023-04-24T12:25:27.119Z,2.55
2023-04-24T12:28:12.115Z,2.30
2023-04-24T12:30:42.616Z,2.13
2023-04-24T12:33:10.109Z,2.53
2023-04-24T12:35:37.551Z,2.83
2023-04-24T12:38:18.965Z,2.58
2023-04-24T12:40:46.537Z,2.53
2023-04-24T12:43:18.901Z,2.22
2023-04-24T12:45:47.120Z,2.28
2023-04-24T12:48:17.404Z,2.53
2023-04-24T12:50:47.056Z,2.30
2023-04-24T12:53:15.284Z,2.58
2023-04-24T12:55:42.699Z,2.92
2023-04-24T12:58:10.303Z,2.58
2023-04-24T13:00:38.376Z,2.30
2023-04-24T13:03:06.915Z,2.35
2023-04-24T13:05:34.400Z,2.80
2023-04-24T13:08:01.748Z,2.85
2023-04-24T13:10:30.042Z,3.08
2023-04-24T13:12:57.619Z,3.20
2023-04-24T13:15:25.693Z,3.05
2023-04-24T13:17:53.022Z,2.90
2023-04-24T13:20:20.547Z,3.25
2023-04-24T13:22:47.965Z,3.20
2023-04-24T13:25:17.887Z,3.13
2023-04-24T13:27:45.403Z,3.10
2023-04-24T13:30:13.482Z,3.38
2023-04-24T13:32:41.172Z,2.85
2023-04-24T13:35:09.100Z,3.00
2023-04-24T13:37:36.453Z,3.22
2023-04-24T13:40:07.108Z,3.22
2023-04-24T13:42:34.666Z,3.50
2023-04-24T13:45:05.950Z,3.38
2023-04-24T13:47:44.282Z,4.13
2023-04-24T13:50:14.040Z,4.05
2023-04-24T13:52:41.636Z,3.85
2023-04-24T13:55:09.268Z,3.50
2023-04-24T13:57:36.957Z,4.78
2023-04-24T14:00:05.337Z,4.43
2023-04-24T14:02:32.912Z,4.85
2023-04-24T14:05:00.639Z,5.28
2023-04-24T14:07:28.877Z,4.10
2023-04-24T14:09:56.399Z,4.95
2023-04-24T14:12:23.872Z,5.25
2023-04-24T14:14:51.237Z,4.70
2023-04-24T14:17:18.606Z,5.18
2023-04-24T14:19:46.096Z,4.45
2023-04-24T14:22:13.556Z,4.82
2023-04-24T14:24:41.065Z,4.60
2023-04-24T14:27:08.538Z,4.82
2023-04-24T14:29:36.140Z,3.80
2023-04-24T14:32:03.499Z,2.70
2023-04-24T14:34:31.041Z,3.33
2023-04-24T14:36:59.823Z,3.78
2023-04-24T14:39:27.441Z,3.78
2023-04-24T14:41:54.844Z,4.55
2023-04-24T14:44:22.716Z,3.92
2023-04-24T14:46:51.006Z,4.85
2023-04-24T14:49:18.512Z,5.55
2023-04-24T14:51:46.137Z,5.40
2023-04-24T14:54:14.041Z,4.63
2023-04-24T14:56:42.038Z,5.47
2023-04-24T14:59:09.589Z,4.47
2023-04-24T15:01:36.931Z,5.03
2023-04-24T15:04:04.466Z,4.60
2023-04-24T15:06:33.822Z,4.90
2023-04-24T15:09:01.377Z,4.57
2023-04-24T15:11:28.843Z,5.22
2023-04-24T15:13:56.864Z,4.47
2023-04-24T15:16:25.918Z,4.03
2023-04-24T15:18:53.456Z,4.57
2023-04-24T15:21:21.072Z,4.80
2023-04-24T15:23:48.857Z,4.50
2023-04-24T15:26:16.449Z,4.20
2023-04-24T15:28:43.878Z,4.05
2023-04-24T15:31:11.246Z,4.68
2023-04-24T15:33:38.766Z,3.72
2023-04-24T15:36:06.652Z,3.72
2023-04-24T15:38:34.421Z,3.90
2023-04-24T15:41:01.881Z,3.85
2023-04-24T15:43:32.084Z,3.92
2023-04-24T15:45:59.657Z,4.25
2023-04-24T15:48:28.279Z,4.70
2023-04-24T15:50:56.070Z,4.43
2023-04-24T15:53:24.044Z,3.90
2023-04-24T15:55:54.539Z,4.00
2023-04-24T15:58:22.310Z,4.43
2023-04-24T16:00:50.085Z,4.68
2023-04-24T16:03:17.696Z,5.15
2023-04-24T16:05:45.255Z,4.88
2023-04-24T16:08:15.305Z,4.95
2023-04-24T16:10:43.493Z,5.38
2023-04-24T16:13:10.861Z,5.43
2023-04-24T16:15:41.269Z,5.97
2023-04-24T16:18:08.952Z,5.57
2023-04-24T16:20:36.485Z,5.53
2023-04-24T16:23:07.582Z,5.28
2023-04-24T16:25:34.968Z,5.30
2023-04-24T16:28:02.531Z,6.13
2023-04-24T16:30:29.892Z,5.68
2023-04-24T16:32:57.314Z,5.97
2023-04-24T16:35:26.112Z,5.78
2023-04-24T16:37:53.478Z,6.10
2023-04-24T16:40:21.567Z,7.00
2023-04-24T16:42:49.478Z,5.72
2023-04-24T16:45:16.944Z,5.38
2023-04-24T16:47:44.528Z,5.78
2023-04-24T16:50:12.333Z,5.75
2023-04-24T16:52:40.085Z,5.05
2023-04-24T16:55:08.049Z,5.18
2023-04-24T16:57:35.506Z,5.20
2023-04-24T17:00:04.110Z,5.32
2023-04-24T17:02:31.810Z,4.45
2023-04-24T17:04:59.488Z,5.22
2023-04-24T17:07:27.030Z,5.05
2023-04-24T17:09:54.895Z,4.38
2023-04-24T17:12:22.577Z,4.50
2023-04-24T17:14:50.115Z,4.85
2023-04-24T17:17:20.600Z,4.70
2023-04-24T17:19:50.318Z,5.22
2023-04-24T17:22:18.410Z,4.75
2023-04-24T17:24:45.783Z,4.32
2023-04-24T17:27:15.283Z,4.45
2023-04-24T17:29:43.109Z,5.30
2023-04-24T17:32:10.775Z,5.03
2023-04-24T17:34:38.182Z,5.85
2023-04-24T17:37:05.618Z,4.97
2023-04-24T17:39:32.972Z,4.88
2023-04-24T17:42:01.519Z,4.90
2023-04-24T17:44:28.951Z,5.28
2023-04-24T17:46:56.522Z,4.22
2023-04-24T17:49:24.349Z,5.07
2023-04-24T17:51:51.770Z,4.90
2023-04-24T17:54:19.171Z,5.32
2023-04-24T17:56:46.596Z,4.95
2023-04-24T17:59:13.972Z,4.95
2023-04-24T18:01:41.359Z,4.57
2023-04-24T18:04:09.547Z,5.00
2023-04-24T18:06:37.284Z,5.10
2023-04-24T18:09:04.660Z,4.90
2023-04-24T18:11:32.233Z,5.00
2023-04-24T18:13:59.545Z,5.18
2023-04-24T18:16:26.991Z,4.85
2023-04-24T18:18:54.343Z,4.90
2023-04-24T18:21:21.722Z,5.15
2023-04-24T18:23:49.091Z,5.38
2023-04-24T18:26:17.227Z,5.32
2023-04-24T18:28:45.014Z,4.47
2023-04-24T18:31:12.528Z,4.95
2023-04-24T18:33:39.903Z,4.95
2023-04-24T18:36:07.323Z,4.65
2023-04-24T18:38:36.603Z,4.30
2023-04-24T18:41:04.313Z,4.78
2023-04-24T18:43:31.767Z,4.68
2023-04-24T18:45:59.146Z,5.25
2023-04-24T18:48:28.713Z,5.10
2023-04-24T18:50:56.162Z,4.60
2023-04-24T18:53:23.925Z,3.80
2023-04-24T18:55:51.582Z,4.85
2023-04-24T18:58:19.093Z,4.05
2023-04-24T19:00:46.570Z,4.50
2023-04-24T19:03:14.295Z,3.95
2023-04-24T19:05:42.002Z,4.45
2023-04-24T19:08:09.495Z,4.28
2023-04-24T19:10:36.998Z,3.80
2023-04-24T19:13:04.551Z,4.15
2023-04-24T19:15:33.485Z,4.10
2023-04-24T19:18:01.176Z,4.15
2023-04-24T19:20:28.621Z,3.25
2023-04-24T19:22:56.215Z,4.30
2023-04-24T19:25:23.706Z,4.15
2023-04-24T19:27:51.064Z,4.38
2023-04-24T19:30:18.492Z,3.45
2023-04-24T19:32:46.056Z,3.38
2023-04-24T19:35:13.448Z,4.13
2023-04-24T19:37:40.859Z,3.63
2023-04-24T19:40:08.700Z,3.55
2023-04-24T19:42:43.869Z,3.60
2023-04-24T19:45:12.841Z,3.00
2023-04-24T19:47:40.437Z,3.40
2023-04-24T19:50:09.307Z,3.22
2023-04-24T19:52:36.847Z,3.45
2023-04-24T19:55:04.725Z,3.67
2023-04-24T19:57:32.202Z,3.22
2023-04-24T19:59:59.663Z,3.63
2023-04-24T20:02:27.242Z,2.92
2023-04-24T20:04:54.866Z,3.42
2023-04-24T20:07:22.564Z,3.75
2023-04-24T20:09:50.005Z,3.90
2023-04-24T20:12:17.555Z,3.60
2023-04-24T20:14:44.881Z,3.70
2023-04-24T20:17:12.248Z,4.15
2023-04-24T20:19:41.010Z,4.70
2023-04-24T20:22:11.270Z,4.22
2023-04-24T20:24:40.405Z,4.93
2023-04-24T20:27:07.766Z,3.75
2023-04-24T20:29:35.554Z,3.80
2023-04-24T20:32:03.084Z,4.38
2023-04-24T20:34:30.567Z,4.50
2023-04-24T20:36:59.168Z,4.75
2023-04-24T20:39:26.737Z,4.60
2023-04-24T20:41:54.135Z,5.47
2023-04-24T20:44:22.099Z,4.65
2023-04-24T20:46:49.533Z,4.47
2023-04-24T20:49:16.936Z,5.00
2023-04-24T20:51:44.344Z,4.93
2023-04-24T20:54:11.664Z,4.40
2023-04-24T20:56:39.130Z,4.53
2023-04-24T20:59:06.574Z,4.97
2023-04-24T21:01:34.134Z,4.78
2023-04-24T21:04:01.584Z,4.55
2023-04-24T21:06:28.980Z,4.35
2023-04-24T21:08:56.732Z,4.22
2023-04-24T21:11:24.147Z,4.38
2023-04-24T21:13:51.691Z,4.85
2023-04-24T21:16:19.252Z,4.40
2023-04-24T21:18:46.655Z,4.32
2023-04-24T21:21:14.040Z,4.57
2023-04-24T21:23:41.492Z,4.45
2023-04-24T21:26:08.922Z,3.72
2023-04-24T21:28:37.312Z,4.32
2023-04-24T21:31:04.728Z,3.85
2023-04-24T21:33:32.087Z,3.95
2023-04-24T21:35:59.455Z,3.80
2023-04-24T21:38:26.799Z,3.85
2023-04-24T21:40:54.127Z,4.45
2023-04-24T21:43:27.964Z,4.25
2023-04-24T21:45:58.132Z,3.75
2023-04-24T21:48:25.527Z,4.95
2023-04-24T21:50:52.821Z,3.92
2023-04-24T21:53:20.240Z,4.13
2023-04-24T21:55:47.661Z,4.05
2023-04-24T21:58:15.098Z,4.15
2023-04-24T22:00:42.463Z,4.50
2023-04-24T22:03:09.864Z,4.22
2023-04-24T22:05:37.283Z,4.57
2023-04-24T22:08:05.496Z,4.32
2023-04-24T22:10:32.894Z,3.72
2023-04-24T22:13:00.301Z,4.18
2023-04-24T22:15:27.775Z,4.18
2023-04-24T22:17:55.282Z,4.07
2023-04-24T22:20:22.782Z,4.35
2023-04-24T22:22:50.266Z,3.90
2023-04-24T22:25:18.840Z,4.25
2023-04-24T22:27:46.140Z,4.93
2023-04-24T22:30:13.633Z,3.97
2023-04-24T22:32:41.099Z,4.97
2023-04-24T22:35:09.451Z,4.63
2023-04-24T22:37:37.221Z,4.65
2023-04-24T22:40:05.574Z,4.60
2023-04-24T22:42:33.096Z,4.75
2023-04-24T22:45:00.558Z,4.68
2023-04-24T22:47:27.947Z,4.43
2023-04-24T22:49:55.390Z,4.53
2023-04-24T22:52:22.743Z,5.03
2023-04-24T22:54:50.190Z,4.25
2023-04-24T22:57:17.484Z,4.70
2023-04-24T22:59:44.882Z,4.50
2023-04-24T23:02:12.407Z,5.40
2023-04-24T23:04:39.875Z,4.28
2023-04-24T23:07:07.257Z,4.38
2023-04-24T23:09:34.990Z,5.40
2023-04-24T23:12:02.474Z,4.80
2023-04-24T23:14:29.936Z,4.88
2023-04-24T23:16:57.500Z,4.68
2023-04-24T23:19:25.269Z,4.43
2023-04-24T23:21:52.620Z,4.57
2023-04-24T23:24:19.975Z,4.75
2023-04-24T23:26:47.325Z,4.93
2023-04-24T23:29:14.649Z,5.60
2023-04-24T23:31:42.006Z,5.45
2023-04-24T23:34:09.381Z,5.00
2023-04-24T23:36:36.765Z,5.20
2023-04-24T23:39:05.363Z,6.45
2023-04-24T23:41:32.814Z,5.20
2023-04-24T23:44:00.163Z,5.40
2023-04-24T23:46:27.614Z,5.03
2023-04-24T23:48:55.055Z,4.82
2023-04-24T23:51:22.437Z,5.65
2023-04-24T23:53:50.060Z,5.55
2023-04-24T23:56:17.600Z,5.78
2023-04-24T23:58:46.828Z,6.93
